Time;durP1;ratioP1;P1;durP2;ratioP2;P2;SDS_P1;SDS_P2;PMS_P1;PMS_P2;Temp;Humidity;BMP_temperature;BMP_pressure;BME280_temperature;BME280_humidity;BME280_pressure;Samples;Min_cycle;Max_cycle;Signal;HPM_P1;HPM_P2
2021/11/23 00:00:52;;;;;;;8.02;1.05;;;;;;;5.87;58.95;102697.97;4986276;28;20033;-67
2021/11/23 00:03:19;;;;;;;6.40;0.82;;;;;;;6.31;57.44;102699.22;4985308;28;20038;-68
2021/11/23 00:05:46;;;;;;;2.47;0.50;;;;;;;6.38;57.54;102696.69;4982735;28;20033;-68
2021/11/23 00:08:17;;;;;;;2.15;0.50;;;;;;;6.28;57.61;102705.25;4981206;28;20053;-68
2021/11/23 00:10:43;;;;;;;4.30;0.70;;;;;;;6.11;58.40;102712.03;5006744;28;20041;-69
2021/11/23 00:13:10;;;;;;;5.13;0.75;;;;;;;6.25;58.50;102715.59;4986129;28;20643;-68
2021/11/23 00:15:36;;;;;;;12.25;1.00;;;;;;;6.59;57.43;102716.72;4986171;28;20049;-68
2021/11/23 00:18:05;;;;;;;3.00;0.60;;;;;;;6.29;59.22;102720.00;5002593;28;20081;-69
2021/11/23 00:20:31;;;;;;;6.55;0.63;;;;;;;6.73;57.61;102719.44;4988631;28;20033;-68
2021/11/23 00:22:58;;;;;;;5.50;0.82;;;;;;;6.81;57.78;102712.53;5004732;28;20061;-68
2021/11/23 00:25:23;;;;;;;7.63;0.52;;;;;;;6.87;57.64;102707.34;4988208;28;20073;-68
2021/11/23 00:27:49;;;;;;;6.93;0.40;;;;;;;6.78;57.95;102707.31;4970300;28;20046;-69
2021/11/23 00:30:14;;;;;;;3.50;0.70;;;;;;;6.88;57.63;102705.63;4987186;28;20062;-68
2021/11/23 00:32:40;;;;;;;4.80;0.65;;;;;;;6.65;57.92;102706.38;4984230;28;20072;-68
2021/11/23 00:35:06;;;;;;;10.13;0.80;;;;;;;6.93;57.44;102706.50;5004906;28;23009;-68
2021/11/23 00:37:31;;;;;;;7.30;0.82;;;;;;;6.64;59.18;102708.94;4991873;28;20044;-68
2021/11/23 00:39:57;;;;;;;3.45;0.40;;;;;;;6.72;58.63;102699.47;4987306;28;20441;-67
2021/11/23 00:42:24;;;;;;;4.72;0.60;;;;;;;6.79;58.37;102703.84;5002947;28;20054;-68
2021/11/23 00:44:53;;;;;;;4.38;0.40;;;;;;;6.95;58.07;102699.59;4986985;28;20614;-68
2021/11/23 00:47:19;;;;;;;6.70;0.80;;;;;;;6.98;57.58;102698.75;5005106;28;20827;-68
2021/11/23 00:49:45;;;;;;;5.00;0.30;;;;;;;7.07;57.03;102694.44;4984103;28;20057;-68
2021/11/23 00:52:12;;;;;;;4.35;0.95;;;;;;;7.04;57.13;102703.97;4983529;28;20161;-67
2021/11/23 00:54:37;;;;;;;3.85;0.40;;;;;;;7.02;57.58;102705.69;5005028;28;20057;-68
2021/11/23 00:57:03;;;;;;;1.10;0.30;;;;;;;6.72;58.11;102704.69;4986049;28;20144;-68
2021/11/23 00:59:29;;;;;;;2.30;0.60;;;;;;;6.98;57.03;102694.41;5002849;28;20034;-68
2021/11/23 01:01:54;;;;;;;2.97;0.30;;;;;;;7.10;56.57;102709.19;4984329;28;20644;-68
2021/11/23 01:04:20;;;;;;;3.88;0.70;;;;;;;7.06;56.96;102708.28;4984748;28;20062;-68
2021/11/23 01:06:49;;;;;;;7.70;0.75;;;;;;;7.14;56.77;102700.53;4986099;28;20041;-68
2021/11/23 01:09:15;;;;;;;3.90;0.40;;;;;;;7.19;56.77;102697.94;4968680;28;20057;-68
2021/11/23 01:11:40;;;;;;;6.30;0.52;;;;;;;7.17;57.12;102695.34;5003873;28;20038;-68
2021/11/23 01:14:07;;;;;;;5.93;0.98;;;;;;;7.04;56.79;102690.97;4986686;28;20678;-68
2021/11/23 01:16:34;;;;;;;2.90;0.47;;;;;;;7.19;57.09;102683.22;5003418;28;20072;-68
2021/11/23 01:19:00;;;;;;;4.00;0.47;;;;;;;7.16;56.71;102682.34;4984553;28;20037;-67
2021/11/23 01:21:26;;;;;;;5.80;0.50;;;;;;;7.03;57.07;102682.28;4970784;28;20093;-68
2021/11/23 01:23:53;;;;;;;5.22;1.75;;;;;;;6.78;58.04;102678.72;5003262;28;20045;-68
2021/11/23 01:26:20;;;;;;;4.28;0.70;;;;;;;7.00;57.52;102674.50;4970527;28;20507;-68
2021/11/23 01:28:45;;;;;;;5.60;0.40;;;;;;;6.76;58.14;102671.78;5002812;28;20058;-66
2021/11/23 01:31:11;;;;;;;4.38;0.50;;;;;;;6.78;58.19;102670.06;4986445;28;20029;-68
2021/11/23 01:33:36;;;;;;;4.93;0.63;;;;;;;6.90;57.52;102670.09;5003514;28;20046;-68
2021/11/23 01:36:02;;;;;;;8.07;1.08;;;;;;;6.79;57.70;102670.06;5002553;28;20385;-68
2021/11/23 01:38:28;;;;;;;5.75;0.52;;;;;;;6.83;57.36;102678.75;4993761;28;20049;-68
2021/11/23 01:40:53;;;;;;;1.52;0.35;;;;;;;6.88;57.13;102677.03;4987173;28;20033;-68
2021/11/23 01:43:19;;;;;;;3.40;0.50;;;;;;;6.86;57.00;102676.16;4984105;28;20042;-68
2021/11/23 01:45:44;;;;;;;2.05;0.80;;;;;;;6.81;57.67;102680.47;4986305;28;20056;-68
2021/11/23 01:48:10;;;;;;;4.32;0.30;;;;;;;6.91;57.48;102675.31;5003002;28;20403;-69
2021/11/23 01:50:37;;;;;;;6.72;0.85;;;;;;;7.04;57.22;102678.84;4970317;28;20137;-68
2021/11/23 01:53:04;;;;;;;5.60;0.95;;;;;;;7.04;57.01;102675.34;5002764;28;20046;-68
2021/11/23 01:55:33;;;;;;;3.05;0.50;;;;;;;7.02;57.22;102669.28;4985285;28;20065;-68
2021/11/23 01:58:02;;;;;;;2.55;0.30;;;;;;;7.12;57.05;102663.25;5003477;28;20053;-68
2021/11/23 02:00:28;;;;;;;6.05;0.20;;;;;;;7.03;56.97;102668.44;5002963;28;20029;-68
2021/11/23 02:02:56;;;;;;;3.30;0.40;;;;;;;7.01;56.99;102677.97;4985995;28;20044;-67
2021/11/23 02:05:21;;;;;;;3.17;0.20;;;;;;;6.98;57.27;102673.63;4983874;28;20029;-68
2021/11/23 02:07:50;;;;;;;6.28;0.30;;;;;;;7.00;57.09;102671.00;4969054;28;20045;-68
2021/11/23 02:10:16;;;;;;;9.25;0.20;;;;;;;7.12;57.07;102676.25;4990421;28;20033;-69
2021/11/23 02:12:42;;;;;;;4.65;0.38;;;;;;;7.01;56.92;102680.56;4987852;28;20127;-69
2021/11/23 02:15:10;;;;;;;2.97;0.20;;;;;;;7.19;56.59;102688.41;4987397;28;20069;-67
2021/11/23 02:17:35;;;;;;;3.88;0.20;;;;;;;7.19;56.50;102691.00;5003264;28;20148;-69
2021/11/23 02:20:03;;;;;;;2.85;0.20;;;;;;;7.11;56.14;102690.13;5006361;28;20486;-70
2021/11/23 02:22:29;;;;;;;3.92;0.43;;;;;;;6.94;56.37;102695.25;5003782;28;20034;-69
2021/11/23 02:24:54;;;;;;;1.38;0.20;;;;;;;6.98;56.65;102684.03;4971790;28;20041;-69
2021/11/23 02:27:21;;;;;;;5.25;0.15;;;;;;;6.97;56.14;102687.47;4990148;28;20034;-68
2021/11/23 02:29:46;;;;;;;0.38;0.10;;;;;;;7.04;56.45;102688.34;4984716;28;20041;-68
2021/11/23 02:32:12;;;;;;;2.33;0.10;;;;;;;7.02;56.49;102688.38;4985194;28;20042;-68
2021/11/23 02:34:37;;;;;;;2.78;0.20;;;;;;;6.95;56.55;102688.31;4989098;28;20034;-68
2021/11/23 02:37:03;;;;;;;6.32;0.20;;;;;;;6.95;56.46;102683.97;5007860;28;20534;-68
2021/11/23 02:39:29;;;;;;;8.35;0.47;;;;;;;6.82;56.78;102693.47;4975788;28;20048;-68
2021/11/23 02:41:54;;;;;;;8.13;0.57;;;;;;;6.75;56.27;102691.69;4988137;28;20065;-68
2021/11/23 02:44:20;;;;;;;1.45;0.10;;;;;;;6.68;56.25;102683.00;4975994;28;20441;-68
2021/11/23 02:46:45;;;;;;;8.63;0.30;;;;;;;6.66;55.94;102691.66;5006255;28;20496;-67
2021/11/23 02:49:11;;;;;;;1.48;0.10;;;;;;;6.52;55.86;102693.31;4973148;28;20026;-68
2021/11/23 02:51:38;;;;;;;1.13;0.10;;;;;;;6.43;55.32;102689.78;4987440;28;20520;-68
2021/11/23 02:54:05;;;;;;;2.22;0.10;;;;;;;6.30;55.36;102693.16;4990822;28;20048;-68
2021/11/23 02:56:30;;;;;;;1.63;0.20;;;;;;;6.22;55.13;102679.25;4987929;28;20030;-68
2021/11/23 02:58:56;;;;;;;7.25;0.20;;;;;;;6.11;55.73;102686.94;4991413;28;20064;-68
2021/11/23 03:01:25;;;;;;;1.38;0.20;;;;;;;6.03;55.56;102684.28;4988542;28;20034;-68
2021/11/23 03:03:52;;;;;;;0.82;0.20;;;;;;;5.88;55.63;102681.53;4986563;28;20521;-68
2021/11/23 03:06:18;;;;;;;7.10;0.35;;;;;;;5.75;56.05;102692.66;4988306;28;20034;-68
2021/11/23 03:08:48;;;;;;;1.95;0.10;;;;;;;5.72;55.51;102675.34;4989736;28;20788;-68
2021/11/23 03:11:16;;;;;;;1.55;0.10;;;;;;;5.61;55.42;102669.19;5006361;28;20038;-68
2021/11/23 03:13:42;;;;;;;0.70;0.10;;;;;;;5.58;55.29;102662.25;4991075;28;20104;-68
2021/11/23 03:16:07;;;;;;;3.67;0.20;;;;;;;5.48;55.46;102663.03;4990734;28;20438;-68
2021/11/23 03:18:33;;;;;;;0.47;0.10;;;;;;;5.49;55.30;102664.75;5006898;28;20143;-69
2021/11/23 03:20:59;;;;;;;1.15;0.00;;;;;;;5.37;55.30;102667.22;5011559;28;20033;-67
2021/11/23 03:23:25;;;;;;;3.08;0.30;;;;;;;5.30;55.27;102660.22;4992042;28;20034;-68
2021/11/23 03:25:51;;;;;;;2.10;0.10;;;;;;;5.31;55.14;102664.59;5006418;28;20063;-68
2021/11/23 03:28:17;;;;;;;3.50;0.10;;;;;;;5.20;55.01;102657.53;4987979;28;20128;-68
2021/11/23 03:30:43;;;;;;;0.50;0.00;;;;;;;5.15;55.43;102654.03;4989585;28;20033;-67
2021/11/23 03:33:10;;;;;;;2.50;0.10;;;;;;;5.11;55.34;102660.03;5005000;28;20049;-68
2021/11/23 03:35:39;;;;;;;5.75;0.05;;;;;;;5.02;55.73;102672.91;5003744;28;20120;-68
2021/11/23 03:38:07;;;;;;;2.85;0.22;;;;;;;4.96;55.73;102668.50;4971191;28;20048;-68
2021/11/23 03:40:34;;;;;;;6.28;0.38;;;;;;;4.94;55.89;102666.75;4987683;28;20033;-68
2021/11/23 03:43:00;;;;;;;1.73;0.10;;;;;;;4.94;55.60;102675.38;4990022;28;20048;-68
2021/11/23 03:45:26;;;;;;;2.42;0.10;;;;;;;4.97;56.19;102669.38;4972769;28;20100;-67
2021/11/23 03:47:55;;;;;;;2.08;0.10;;;;;;;5.04;56.00;102678.97;5006150;28;20053;-67
2021/11/23 03:50:21;;;;;;;2.83;0.20;;;;;;;4.99;55.95;102678.06;4992491;28;20042;-68
2021/11/23 03:52:48;;;;;;;2.13;0.20;;;;;;;4.95;55.63;102671.09;5011500;28;20053;-68
2021/11/23 03:55:17;;;;;;;2.00;0.10;;;;;;;4.89;55.45;102676.19;4987964;28;20168;-68
2021/11/23 03:57:44;;;;;;;2.80;0.30;;;;;;;4.84;55.76;102676.09;4988192;28;20103;-67
2021/11/23 04:00:11;;;;;;;1.42;0.10;;;;;;;4.96;56.08;102681.44;5005168;28;20057;-68
2021/11/23 04:02:41;;;;;;;2.65;0.22;;;;;;;5.11;56.17;102673.00;4985627;28;20037;-68
2021/11/23 04:05:07;;;;;;;7.65;0.50;;;;;;;5.24;56.73;102681.78;4988730;28;20084;-68
2021/11/23 04:07:34;;;;;;;1.08;0.00;;;;;;;5.36;56.64;102678.47;4975216;28;20477;-68
2021/11/23 04:10:00;;;;;;;1.75;0.03;;;;;;;5.47;56.27;102684.63;4987005;28;20454;-67
2021/11/23 04:12:25;;;;;;;0.90;0.10;;;;;;;5.53;56.65;102671.72;4991370;28;20145;-68
2021/11/23 04:14:51;;;;;;;4.68;0.10;;;;;;;5.64;57.62;102675.28;4971760;28;20067;-68
2021/11/23 04:17:16;;;;;;;9.82;0.30;;;;;;;5.80;57.28;102670.25;5004736;28;20503;-67
2021/11/23 04:19:43;;;;;;;5.60;0.40;;;;;;;5.92;57.32;102674.66;5004008;28;20682;-67
2021/11/23 04:22:09;;;;;;;4.15;0.32;;;;;;;6.03;57.27;102679.06;4990217;28;20550;-68
2021/11/23 04:24:35;;;;;;;2.55;0.25;;;;;;;6.18;56.81;102687.84;4989854;28;20033;-69
2021/11/23 04:27:00;;;;;;;6.97;0.43;;;;;;;6.23;57.02;102691.34;5011153;28;20121;-67
2021/11/23 04:29:26;;;;;;;4.47;0.28;;;;;;;6.31;56.76;102683.63;4993672;28;21022;-68
2021/11/23 04:31:52;;;;;;;3.75;0.50;;;;;;;5.97;57.18;102672.97;5006930;28;20050;-67
2021/11/23 04:34:18;;;;;;;11.32;0.25;;;;;;;6.25;57.44;102674.91;5014274;28;20072;-67
2021/11/23 04:36:44;;;;;;;3.90;0.25;;;;;;;6.39;56.77;102688.03;4994469;28;20305;-67
2021/11/23 04:39:11;;;;;;;5.45;0.10;;;;;;;6.46;57.00;102689.81;4996137;28;20513;-67
2021/11/23 04:41:40;;;;;;;6.70;0.70;;;;;;;6.44;56.45;102686.34;4992422;28;20064;-68
2021/11/23 04:44:06;;;;;;;5.57;0.30;;;;;;;6.40;56.56;102689.78;4990394;28;20635;-67
2021/11/23 04:46:31;;;;;;;4.07;0.40;;;;;;;6.39;56.25;102676.78;5006745;28;20030;-67
2021/11/23 04:48:57;;;;;;;6.95;0.77;;;;;;;6.40;56.43;102670.72;5005357;28;20034;-67
2021/11/23 04:51:23;;;;;;;7.13;0.68;;;;;;;6.19;56.70;102676.59;4993220;28;20399;-66
2021/11/23 04:53:49;;;;;;;4.57;0.28;;;;;;;6.09;57.17;102671.34;5003648;28;20048;-68
2021/11/23 04:56:15;;;;;;;6.72;0.20;;;;;;;6.24;56.92;102677.53;5004882;28;20030;-68
2021/11/23 04:58:40;;;;;;;3.53;0.25;;;;;;;6.28;56.40;102684.47;4985896;28;20060;-68
2021/11/23 05:01:07;;;;;;;4.72;0.15;;;;;;;6.31;56.04;102679.31;4970180;28;20036;-67
2021/11/23 05:03:32;;;;;;;10.90;0.68;;;;;;;6.18;56.59;102682.66;5004671;28;20498;-68
2021/11/23 05:05:58;;;;;;;3.28;0.40;;;;;;;6.20;56.85;102681.81;4987464;28;20036;-67
2021/11/23 05:08:24;;;;;;;6.85;0.70;;;;;;;6.20;56.25;102683.56;5002296;28;20042;-67
2021/11/23 05:10:49;;;;;;;13.65;0.40;;;;;;;6.24;56.44;102682.72;4988342;28;20037;-68
2021/11/23 05:13:15;;;;;;;9.50;0.32;;;;;;;6.26;56.49;102697.44;5002931;28;20033;-67
2021/11/23 05:15:40;;;;;;;6.60;0.43;;;;;;;6.27;56.49;102685.31;4988111;28;20037;-67
2021/11/23 05:18:06;;;;;;;6.45;0.30;;;;;;;6.25;56.50;102674.91;4986282;28;20140;-68
2021/11/23 05:20:32;;;;;;;5.45;0.40;;;;;;;6.38;56.56;102681.09;4987737;28;20034;-67
2021/11/23 05:22:57;;;;;;;5.93;0.22;;;;;;;6.42;56.44;102676.81;5004717;28;20080;-70
2021/11/23 05:25:22;;;;;;;2.67;0.22;;;;;;;6.37;56.41;102684.53;4987826;28;20422;-67
2021/11/23 05:27:48;;;;;;;1.52;0.10;;;;;;;6.43;56.31;102683.72;5002761;28;20054;-67
2021/11/23 05:30:14;;;;;;;4.15;0.57;;;;;;;6.45;56.20;102688.06;4988354;28;20034;-68
2021/11/23 05:32:41;;;;;;;4.57;0.20;;;;;;;6.47;55.94;102681.16;5002536;28;20048;-68
2021/11/23 05:35:07;;;;;;;5.63;0.28;;;;;;;6.17;57.18;102686.09;5002209;28;20030;-68
2021/11/23 05:37:33;;;;;;;1.00;0.10;;;;;;;6.31;56.90;102688.81;5003554;28;20034;-67
2021/11/23 05:39:58;;;;;;;6.50;0.13;;;;;;;6.17;57.05;102686.09;4985376;28;20044;-68
2021/11/23 05:42:24;;;;;;;7.53;0.40;;;;;;;6.20;56.99;102681.81;5002496;28;20144;-69
2021/11/23 05:44:49;;;;;;;5.55;0.32;;;;;;;6.24;56.81;102682.72;4986420;28;20041;-68
2021/11/23 05:47:15;;;;;;;5.35;0.10;;;;;;;6.19;56.60;102674.88;5002866;28;20050;-68
2021/11/23 05:49:42;;;;;;;9.65;0.20;;;;;;;6.03;57.17;102681.66;4984834;28;20057;-67
2021/11/23 05:52:08;;;;;;;2.25;0.20;;;;;;;6.24;56.29;102678.38;4986950;28;20215;-69
2021/11/23 05:54:34;;;;;;;5.68;0.38;;;;;;;6.04;56.72;102680.84;5003162;28;20172;-67
2021/11/23 05:57:00;;;;;;;4.38;0.10;;;;;;;6.18;56.34;102680.06;4986080;28;20124;-68
2021/11/23 05:59:25;;;;;;;2.83;0.15;;;;;;;6.19;56.02;102681.78;4982832;28;20026;-67
2021/11/23 06:01:52;;;;;;;5.30;0.43;;;;;;;6.16;56.10;102686.97;4984419;28;20236;-67
2021/11/23 06:04:18;;;;;;;7.43;0.10;;;;;;;6.18;55.96;102687.84;4986113;28;20539;-69
2021/11/23 06:06:43;;;;;;;6.07;0.35;;;;;;;6.18;56.13;102687.84;5000217;28;20144;-66
2021/11/23 06:09:09;;;;;;;5.97;0.10;;;;;;;6.17;56.46;102691.28;4978965;28;20087;-68
2021/11/23 06:11:35;;;;;;;1.15;0.15;;;;;;;6.26;55.98;102693.97;5002020;28;20033;-68
2021/11/23 06:14:00;;;;;;;12.13;0.55;;;;;;;6.24;55.91;102693.97;5003968;28;20161;-68
2021/11/23 06:16:26;;;;;;;5.72;0.35;;;;;;;6.16;56.07;102708.59;5003125;28;20477;-68
2021/11/23 06:18:52;;;;;;;6.85;0.10;;;;;;;5.96;57.28;102698.06;5000800;28;20128;-68
2021/11/23 06:21:21;;;;;;;3.58;0.50;;;;;;;6.16;56.15;102705.16;4984939;28;20112;-67
2021/11/23 06:23:48;;;;;;;1.08;0.10;;;;;;;6.17;56.17;102699.09;4982726;28;20601;-68
2021/11/23 06:26:18;;;;;;;4.47;0.60;;;;;;;6.33;55.87;102701.00;4985055;28;20033;-68
2021/11/23 06:28:43;;;;;;;4.07;0.30;;;;;;;6.50;54.96;102696.75;4992974;28;20038;-67
2021/11/23 06:31:09;;;;;;;5.70;0.63;;;;;;;6.58;55.30;102698.56;4970145;28;20099;-67
2021/11/23 06:33:34;;;;;;;3.53;0.30;;;;;;;6.58;55.08;102698.56;4985508;28;20136;-67
2021/11/23 06:36:00;;;;;;;1.00;0.15;;;;;;;6.57;55.00;102702.00;5007351;28;20022;-66
2021/11/23 06:38:25;;;;;;;1.55;0.73;;;;;;;6.56;54.79;102700.28;4987507;28;20042;-68
2021/11/23 06:40:51;;;;;;;3.80;0.20;;;;;;;6.47;54.43;102696.75;4992938;28;20417;-67
2021/11/23 06:43:16;;;;;;;2.97;0.20;;;;;;;6.39;54.32;102707.94;5006169;28;20283;-68
2021/11/23 06:45:42;;;;;;;1.55;0.40;;;;;;;6.28;54.15;102705.25;5005258;28;20041;-67
2021/11/23 06:48:09;;;;;;;4.63;0.30;;;;;;;6.13;54.35;102711.19;4967127;28;20484;-67
2021/11/23 06:50:35;;;;;;;1.05;0.10;;;;;;;6.08;54.24;102713.75;4963625;28;20045;-68
2021/11/23 06:53:05;;;;;;;2.17;0.40;;;;;;;6.09;54.32;102723.25;4968262;28;20038;-67
2021/11/23 06:55:31;;;;;;;7.00;0.10;;;;;;;5.99;54.09;102713.66;5002537;28;20435;-67
2021/11/23 06:57:56;;;;;;;4.30;0.10;;;;;;;5.84;54.41;102718.72;4999744;28;20099;-66
2021/11/23 07:00:22;;;;;;;1.45;0.15;;;;;;;5.82;54.65;102720.44;5000368;28;20484;-69
2021/11/23 07:02:48;;;;;;;1.83;0.10;;;;;;;5.78;54.72;102729.03;4983301;28;20038;-70
2021/11/23 07:05:14;;;;;;;2.95;0.40;;;;;;;5.70;55.02;102726.34;5003666;28;20427;-69
2021/11/23 07:07:40;;;;;;;3.53;0.17;;;;;;;5.70;55.10;102728.09;5000242;28;20046;-68
2021/11/23 07:10:06;;;;;;;1.58;0.25;;;;;;;5.62;55.02;102725.44;4984961;28;20493;-67
2021/11/23 07:12:33;;;;;;;6.88;0.15;;;;;;;5.52;54.86;102729.63;4983695;28;20062;-66
2021/11/23 07:14:58;;;;;;;0.28;0.00;;;;;;;5.49;54.77;102729.59;5003883;28;20048;-68
2021/11/23 07:17:24;;;;;;;0.88;0.05;;;;;;;5.44;54.74;102733.88;5000975;28;20034;-69
2021/11/23 07:19:49;;;;;;;5.10;0.10;;;;;;;5.37;54.59;102732.03;4983935;28;20421;-67
2021/11/23 07:22:16;;;;;;;13.50;0.35;;;;;;;5.32;54.89;102741.50;4968072;28;20054;-68
2021/11/23 07:24:41;;;;;;;1.08;0.20;;;;;;;5.32;55.25;102739.78;5002382;28;20446;-68
2021/11/23 07:27:07;;;;;;;1.75;0.10;;;;;;;5.40;55.41;102737.28;4965097;28;20050;-67
2021/11/23 07:29:33;;;;;;;6.85;0.35;;;;;;;5.54;55.10;102746.06;4984477;28;20657;-66
2021/11/23 07:31:58;;;;;;;2.17;0.20;;;;;;;5.71;55.34;102753.19;4968061;28;20530;-67
2021/11/23 07:34:24;;;;;;;3.80;0.93;;;;;;;5.85;55.14;102759.38;4982116;28;20037;-68
2021/11/23 07:36:49;;;;;;;3.40;0.43;;;;;;;5.90;54.92;102760.28;4967222;28;20057;-67
2021/11/23 07:39:15;;;;;;;1.05;0.30;;;;;;;5.87;55.06;102762.88;4983234;28;20064;-68
2021/11/23 07:41:40;;;;;;;3.47;0.52;;;;;;;5.76;55.56;102762.75;4983331;28;20042;-67
2021/11/23 07:44:10;;;;;;;1.58;0.17;;;;;;;5.80;55.90;102763.66;4982851;28;20726;-67
2021/11/23 07:46:35;;;;;;;1.83;0.10;;;;;;;5.91;55.70;102764.63;4968302;28;20238;-68
2021/11/23 07:49:01;;;;;;;11.80;0.30;;;;;;;5.96;55.92;102759.50;4973479;28;20037;-67
2021/11/23 07:51:30;;;;;;;2.38;0.30;;;;;;;6.06;56.02;102753.50;4982733;28;20045;-68
2021/11/23 07:53:56;;;;;;;7.82;0.82;;;;;;;6.21;55.88;102755.38;5001866;28;20045;-67
2021/11/23 07:56:21;;;;;;;9.45;1.17;;;;;;;6.37;55.67;102752.06;4982683;28;20025;-67
2021/11/23 07:58:47;;;;;;;4.90;1.25;;;;;;;6.30;56.17;102752.88;4983369;28;20053;-67
2021/11/23 08:01:13;;;;;;;5.32;0.77;;;;;;;6.48;55.34;102753.06;5001196;28;20029;-68
2021/11/23 08:03:40;;;;;;;3.10;0.20;;;;;;;6.54;55.19;102754.81;4987386;28;20053;-67
2021/11/23 08:06:07;;;;;;;9.40;0.50;;;;;;;6.61;55.25;102760.91;5006396;28;20065;-67
2021/11/23 08:08:34;;;;;;;8.60;0.40;;;;;;;6.71;54.64;102765.31;4985149;28;20034;-67
2021/11/23 08:11:00;;;;;;;3.20;0.20;;;;;;;6.73;54.20;102763.59;5008231;28;20097;-68
2021/11/23 08:13:26;;;;;;;2.83;0.98;;;;;;;6.65;53.89;102753.16;4988945;28;20184;-68
2021/11/23 08:15:52;;;;;;;2.40;0.30;;;;;;;6.59;54.41;102758.28;4986967;28;20612;-68
2021/11/23 08:18:18;;;;;;;6.72;0.40;;;;;;;6.60;54.63;102764.38;5004865;28;20061;-67
2021/11/23 08:20:44;;;;;;;7.55;1.63;;;;;;;6.77;54.31;102757.53;4986645;28;20042;-68
2021/11/23 08:23:09;;;;;;;6.97;1.02;;;;;;;6.79;53.91;102758.41;4983328;28;20530;-68
2021/11/23 08:25:38;;;;;;;1.80;0.30;;;;;;;7.05;54.30;102762.91;4983441;28;20029;-68
2021/11/23 08:28:04;;;;;;;5.53;0.40;;;;;;;7.05;53.78;102760.31;5001251;28;20038;-68
2021/11/23 08:30:30;;;;;;;7.68;0.85;;;;;;;7.07;53.81;102766.41;4983043;28;20038;-68
2021/11/23 08:32:56;;;;;;;4.05;0.20;;;;;;;6.91;53.99;102763.72;5001452;28;20582;-69
2021/11/23 08:35:21;;;;;;;6.38;0.52;;;;;;;7.18;54.06;102764.72;5003197;28;20109;-69
2021/11/23 08:37:47;;;;;;;2.38;0.20;;;;;;;7.52;53.15;102764.84;4982145;28;20061;-68
2021/11/23 08:40:13;;;;;;;1.52;0.40;;;;;;;8.43;52.08;102768.44;4976822;28;20057;-68
2021/11/23 08:42:39;;;;;;;2.83;0.63;;;;;;;9.16;49.21;102780.50;5001006;28;20827;-68
2021/11/23 08:45:06;;;;;;;1.70;0.30;;;;;;;9.11;49.91;102773.53;4983030;28;20034;-68
2021/11/23 08:47:32;;;;;;;2.95;0.50;;;;;;;9.33;48.91;102775.19;5000750;28;20045;-68
2021/11/23 08:49:58;;;;;;;7.00;1.10;;;;;;;9.70;47.30;102782.84;4982520;28;20046;-68
2021/11/23 08:52:26;;;;;;;6.07;0.20;;;;;;;9.62;46.13;102787.22;4983564;28;20499;-69
2021/11/23 08:54:52;;;;;;;12.55;0.50;;;;;;;9.48;48.37;102789.06;5003242;28;20038;-69
2021/11/23 08:57:18;;;;;;;3.70;0.50;;;;;;;9.71;48.72;102792.41;5002215;28;20080;-68
2021/11/23 08:59:43;;;;;;;4.25;0.52;;;;;;;10.09;47.29;102796.53;5000212;28;20680;-67
2021/11/23 09:02:13;;;;;;;6.13;1.48;;;;;;;10.39;46.97;102797.16;4985270;28;20049;-68
2021/11/23 09:04:40;;;;;;;8.77;0.40;;;;;;;10.77;45.84;102798.56;4977636;28;20033;-68
2021/11/23 09:07:09;;;;;;;3.03;0.43;;;;;;;11.23;43.63;102798.94;5001133;28;20061;-68
2021/11/23 09:09:38;;;;;;;5.90;0.30;;;;;;;10.99;42.61;102796.59;4979688;28;20897;-68
2021/11/23 09:12:05;;;;;;;2.80;0.50;;;;;;;10.53;43.94;102805.78;4982454;28;20046;-69
2021/11/23 09:14:33;;;;;;;3.53;0.50;;;;;;;10.71;44.96;102803.88;4984438;28;20037;-70
2021/11/23 09:17:00;;;;;;;7.32;0.90;;;;;;;11.00;44.05;102806.22;4984199;28;20045;-71
2021/11/23 09:19:27;;;;;;;6.10;2.22;;;;;;;11.02;44.56;102809.69;4971606;28;20147;-73
2021/11/23 09:21:53;;;;;;;5.20;0.38;;;;;;;11.30;43.97;102804.97;4981876;28;20489;-68
2021/11/23 09:24:20;;;;;;;1.48;0.47;;;;;;;11.45;42.49;102804.78;4984419;28;20029;-69
2021/11/23 09:26:45;;;;;;;3.90;0.68;;;;;;;11.21;42.81;102805.09;5002171;28;20368;-69
2021/11/23 09:29:13;;;;;;;10.13;0.63;;;;;;;10.40;43.75;102805.00;4984605;28;20034;-68
2021/11/23 09:31:40;;;;;;;2.67;0.20;;;;;;;9.95;46.09;102811.44;5001303;28;20029;-70
2021/11/23 09:34:06;;;;;;;7.05;0.40;;;;;;;9.86;46.93;102803.69;4984590;28;20095;-71
2021/11/23 09:36:32;;;;;;;5.00;0.65;;;;;;;9.82;47.34;102807.19;4984245;28;20558;-70
2021/11/23 09:38:58;;;;;;;3.55;0.55;;;;;;;10.46;47.01;102805.81;4983411;28;20042;-69
2021/11/23 09:41:24;;;;;;;3.47;0.68;;;;;;;10.99;45.73;102810.56;4984586;28;20095;-68
2021/11/23 09:43:49;;;;;;;11.25;3.90;;;;;;;11.78;45.07;102813.09;4999763;28;20053;-70
2021/11/23 09:46:15;;;;;;;9.05;3.05;;;;;;;12.46;42.27;102812.03;5001072;28;20523;-68
2021/11/23 09:48:44;;;;;;;7.07;1.15;;;;;;;12.49;41.73;102814.59;5000546;28;20073;-67
2021/11/23 09:51:15;;;;;;;10.90;1.15;;;;;;;12.12;42.57;102809.97;4984518;28;20038;-69
2021/11/23 09:53:41;;;;;;;3.17;0.45;;;;;;;11.58;43.62;102805.50;4999448;28;20072;-68
2021/11/23 09:56:07;;;;;;;1.25;0.50;;;;;;;10.67;44.65;102805.63;4983594;28;20459;-68
2021/11/23 09:58:33;;;;;;;4.45;0.10;;;;;;;10.70;46.14;102808.22;4965884;28;20111;-69
2021/11/23 10:01:06;;;;;;;1.17;0.40;;;;;;;10.92;44.95;102814.13;4983735;28;21039;-68
2021/11/23 10:03:33;;;;;;;3.65;0.25;;;;;;;11.62;45.25;102812.44;4999061;28;20803;-67
2021/11/23 10:06:14;;;;;;;6.53;0.57;;;;;;;11.64;44.03;102812.38;5002418;28;20042;-68
2021/11/23 10:08:42;;;;;;;5.72;0.20;;;;;;;11.44;43.59;102805.69;4963634;28;20049;-67
2021/11/23 10:11:10;;;;;;;3.70;0.10;;;;;;;11.01;45.03;102823.63;4985510;28;20087;-68
2021/11/23 10:13:45;;;;;;;6.32;0.32;;;;;;;10.21;46.51;102808.63;4983719;28;20042;-67
2021/11/23 10:16:11;;;;;;;1.60;0.15;;;;;;;9.84;47.65;102818.50;5004073;28;20018;-67
2021/11/23 10:18:37;;;;;;;6.85;0.28;;;;;;;9.66;48.66;102804.63;4999959;28;20061;-66
2021/11/23 10:21:06;;;;;;;4.25;0.60;;;;;;;9.35;49.26;102809.97;4985734;28;20034;-67
2021/11/23 10:23:41;;;;;;;4.25;0.22;;;;;;;9.36;49.81;102810.84;5001788;28;20115;-67
2021/11/23 10:26:18;;;;;;;1.50;0.13;;;;;;;8.88;50.43;102808.38;4969110;28;20038;-67
2021/11/23 10:28:53;;;;;;;4.30;0.45;;;;;;;8.90;50.70;102811.84;4985977;28;20092;-68
2021/11/23 10:31:20;;;;;;;4.63;0.20;;;;;;;8.83;50.86;102804.94;5003489;28;20567;-67
2021/11/23 10:33:47;;;;;;;3.42;0.50;;;;;;;9.02;50.41;102804.88;4982192;28;20388;-66
2021/11/23 10:36:19;;;;;;;2.75;0.40;;;;;;;9.10;50.20;102803.13;4964481;28;20030;-68
2021/11/23 10:38:45;;;;;;;;;;;;;;;9.28;49.70;102802.19;5000741;28;20049;-67
2021/11/23 10:41:16;;;;;;;12.38;2.65;;;;;;;9.07;50.25;102805.72;4985124;28;19961;-67
2021/11/23 10:43:43;;;;;;;5.83;1.23;;;;;;;8.82;51.07;102803.16;4984127;28;20196;-67
2021/11/23 10:46:15;;;;;;;8.13;1.52;;;;;;;9.38;50.07;102807.34;5003351;28;20048;-68
2021/11/23 10:48:41;;;;;;;7.18;1.50;;;;;;;9.73;49.64;102803.69;4984725;28;20038;-67
2021/11/23 10:51:10;;;;;;;2.63;0.20;;;;;;;10.03;49.04;102809.63;5004071;28;20042;-67
2021/11/23 10:53:38;;;;;;;3.90;0.10;;;;;;;10.03;48.20;102807.03;4985624;28;20049;-67
2021/11/23 10:56:10;;;;;;;5.80;0.17;;;;;;;9.50;48.69;102809.06;5001993;28;20383;-67
2021/11/23 10:58:36;;;;;;;;;;;;;;;9.27;49.23;102806.53;4974908;28;20038;-67
2021/11/23 11:01:05;;;;;;;3.38;0.15;;;;;;;9.21;49.27;102801.34;4985049;28;19917;-67
2021/11/23 11:03:32;;;;;;;3.83;0.47;;;;;;;9.08;49.28;102799.66;4973471;28;20650;-69
2021/11/23 11:06:00;;;;;;;4.70;0.50;;;;;;;8.93;49.79;102795.34;5002446;28;20073;-67
2021/11/23 11:08:28;;;;;;;1.02;0.17;;;;;;;9.30;49.70;102780.44;4986776;28;20038;-67
2021/11/23 11:10:54;;;;;;;2.15;0.20;;;;;;;9.77;48.47;102792.38;5004837;28;20057;-67
2021/11/23 11:13:22;;;;;;;2.50;1.00;;;;;;;10.35;47.75;102792.88;4983181;28;20054;-67
2021/11/23 11:15:59;;;;;;;2.53;0.20;;;;;;;10.59;46.60;102781.28;4983900;28;20059;-67
2021/11/23 11:18:25;;;;;;;4.43;0.17;;;;;;;10.56;46.55;102784.81;4998844;28;20045;-68
2021/11/23 11:20:58;;;;;;;1.65;0.20;;;;;;;10.09;46.59;102788.69;5001654;28;20038;-68
2021/11/23 11:23:42;;;;;;;1.25;0.10;;;;;;;9.82;47.39;102781.94;4982022;28;20056;-67
2021/11/23 11:26:25;;;;;;;6.40;0.43;;;;;;;9.56;47.96;102782.03;4984986;28;20104;-67
2021/11/23 11:28:53;;;;;;;2.08;0.10;;;;;;;9.70;47.45;102790.69;4983021;28;20200;-67